Vernal, UT (84078)

1:50 AM MDT on September 02, 2014 (GMT -0600)
Maeser | Change Station
CLOSE
Current Station
Personal Weather Station
Location: Vernal, UT
Elevation: 5469 ft
Nearby Weather Stations

Elev 5469 ft 40.46 °N, 109.57 °W | Updated 12 seconds ago

Clear
Clear
54.9 °F
Feels Like 54.9 °F
N
2.0
Wind Variable Wind from NW
Gusts 3.0 mph

Today
High -- | Low -- °F
--% Chance of Precip.
Yesterday
High -- | Low -- °F
Precip. -- in
6:46 AM 7:48 PM
Waxing Crescent, 49% visible
Pressure 29.94 in
Visibility 10.0 miles
Clouds Clear
Dew Point 40 °F
Humidity 57%
Rainfall 0.00 in
Snow Depth Not available.
UV 0 out of 12
Pollen 8.90 out of 12
Air Quality Not available.
Flu Activity Not available.
METAR KVEL 020653Z AUTO 34008KT 10SM CLR 15/04 A3010 RMK AO2 SLP138 T01500039 402560083

More Conditions Fewer Conditions

Pressure 29.94 in
Visibility 10.0 miles
Clouds Clear
Dew Point 40 °F
Humidity 57%
Rainfall 0.00 in
Snow Depth Not available.
UV 0 out of 12
Pollen 8.90 out of 12
Air Quality Not available.
Flu Activity Not available.
METAR KVEL 020653Z AUTO 34008KT 10SM CLR 15/04 A3010 RMK AO2 SLP138 T01500039 402560083

More Conditions Fewer Conditions

10-Day Weather Forecast

Almanac

Astronomy

Sep. 02, 2014 Rise Set
Actual Time 6:46 AM MDT 7:48 PM MDT
Civil Twilight 6:18 AM MDT 8:16 PM MDT
Nautical Twilight 5:45 AM MDT 8:49 PM MDT
Astronomical Twilight 5:10 AM MDT 9:23 PM MDT
Moon 2:35 PM MDT No Moon Set
Length of Visible Light 13h 57m
Length of Day
13h 01m
Tomorrow will be 2m 35s shorter.
Waxing Crescent, 49% of the Moon is Illuminated
Today
Waxing Crescent
Sep 2
First Quarter
Sep 8
Full
Sep 15
Last Quarter
Sep 24
New

Today's Extremes

State Highs State Lows

Community

WunderPhotos

Upload Photos

1,749,589 photos uploaded!

WunderBlogs® & News

Nearby

Snow Depth

Station Depth Elevation
King's Cabin 1 in 8730 ft
Mosby Mountain 1 in 9500 ft
Trout Creek 1 in 9400 ft
Chepeta 0 in 10300 ft
Lakefork #1 1 in 10100 ft

Earthquake Activity

City Distance Mag. Time & Date
No recent earthquake activity has been reported nearby.
Minimum magnitude displayed is 2.5.

Coastal Water Temperatures

Place Temperature
No Stations Reporting

Nearby Weather Stations